Terminal Aerodrome Forecast
Issued by NWS

Home | Current Version | Previous Version | Text Only | Print | Product List | Glossary On
Versions: 1 2 3 4 5 6 7 8 9 10 11 12 13 14 15 16 17 18
041
FTUS44 KMAF 021740 AAA
TAFHOB
TAF AMD
KHOB 021740Z 0218/0318 01009KT 2SM BR OVC005
      TEMPO 0218/0221 1/4SM FG OVC001
     FM022100 02006KT 5SM -DZRA BR OVC006
      TEMPO 0300/0304 1SM -DZRA BR OVC002
     FM030400 02006KT 2SM -DZRA BR OVC003
      TEMPO 0308/0312 1SM -DZRA BR OVC002=

USA.gov is the U.S. government's official web portal to all federal, state and local government web resources and services.